createdAt,value
2019-05-17T00:00:27.362Z,20.85
2019-05-17T00:02:59.523Z,24.05
2019-05-17T00:05:31.064Z,23.67
2019-05-17T00:08:02.805Z,20.85
2019-05-17T00:10:34.426Z,20.70
2019-05-17T00:13:07.571Z,21.60
2019-05-17T00:15:41.090Z,27.55
2019-05-17T00:18:12.769Z,24.45
2019-05-17T00:20:46.683Z,29.65
2019-05-17T00:23:18.726Z,24.00
2019-05-17T00:25:51.528Z,28.45
2019-05-17T00:28:23.187Z,29.18
2019-05-17T00:30:56.987Z,26.85
2019-05-17T00:33:28.275Z,30.57
2019-05-17T00:36:00.030Z,30.82
2019-05-17T00:38:44.819Z,31.95
2019-05-17T00:41:07.030Z,27.07
2019-05-17T00:43:38.486Z,27.98
2019-05-17T00:46:10.184Z,27.93
2019-05-17T00:48:42.317Z,32.55
2019-05-17T00:51:13.993Z,29.67
2019-05-17T00:53:46.934Z,37.75
2019-05-17T00:56:18.683Z,31.73
2019-05-17T00:58:51.861Z,34.30
2019-05-17T01:01:23.735Z,35.63
2019-05-17T01:03:57.150Z,35.78
2019-05-17T01:06:28.777Z,34.40
2019-05-17T01:09:03.993Z,33.60
2019-05-17T01:11:36.625Z,33.65
2019-05-17T01:14:08.034Z,30.12
2019-05-17T01:16:39.844Z,32.48
2019-05-17T01:19:12.451Z,34.98
2019-05-17T01:21:44.130Z,35.25
2019-05-17T01:24:17.327Z,31.97
2019-05-17T01:26:50.498Z,30.68
2019-05-17T01:29:26.702Z,34.85
2019-05-17T01:31:58.064Z,36.40
2019-05-17T01:34:29.914Z,33.05
2019-05-17T01:37:01.577Z,34.05
2019-05-17T01:39:33.673Z,34.03
2019-05-17T01:42:06.803Z,32.15
2019-05-17T01:44:38.853Z,26.50
2019-05-17T01:47:10.688Z,37.15
2019-05-17T01:49:42.291Z,33.53
2019-05-17T01:52:13.946Z,34.88
2019-05-17T01:54:46.926Z,37.28
2019-05-17T01:57:19.946Z,35.43
2019-05-17T01:59:51.597Z,35.68
2019-05-17T02:02:33.834Z,39.80
2019-05-17T02:05:07.873Z,35.80
2019-05-17T02:07:40.744Z,38.25
2019-05-17T02:10:16.553Z,39.35
2019-05-17T02:12:49.051Z,37.80
2019-05-17T02:15:21.682Z,29.12
2019-05-17T02:17:53.236Z,35.50
2019-05-17T02:20:27.388Z,32.75
2019-05-17T02:22:59.649Z,32.25
2019-05-17T02:25:31.392Z,33.98
2019-05-17T02:28:03.328Z,29.92
2019-05-17T02:30:35.279Z,32.83
2019-05-17T02:33:07.390Z,27.60
2019-05-17T02:35:38.981Z,27.58
2019-05-17T02:38:13.239Z,30.70
2019-05-17T02:40:44.066Z,30.77
2019-05-17T02:43:15.716Z,28.17
2019-05-17T02:45:47.453Z,29.40
2019-05-17T02:48:19.073Z,30.70
2019-05-17T02:50:53.181Z,30.72
2019-05-17T02:53:23.949Z,21.90
2019-05-17T02:55:55.564Z,27.13
2019-05-17T02:58:27.109Z,26.00
2019-05-17T03:00:58.754Z,28.05
2019-05-17T03:03:32.353Z,25.77
2019-05-17T03:06:03.737Z,23.77
2019-05-17T03:08:35.597Z,24.55
2019-05-17T03:11:07.406Z,26.35
2019-05-17T03:13:39.078Z,24.40
2019-05-17T03:16:14.291Z,22.37
2019-05-17T03:18:44.187Z,24.43
2019-05-17T03:21:15.981Z,22.30
2019-05-17T03:23:48.025Z,26.68
2019-05-17T03:26:22.852Z,20.88
2019-05-17T03:28:53.861Z,24.55
2019-05-17T03:31:27.156Z,23.47
2019-05-17T03:34:06.235Z,22.98
2019-05-17T03:36:36.417Z,23.45
2019-05-17T03:39:08.495Z,22.20
2019-05-17T03:41:42.855Z,21.37
2019-05-17T03:44:13.899Z,23.87
2019-05-17T03:46:47.097Z,21.82
2019-05-17T03:49:18.875Z,22.67
2019-05-17T03:51:53.184Z,22.77
2019-05-17T03:54:24.066Z,23.50
2019-05-17T03:56:55.958Z,19.35
2019-05-17T03:59:27.668Z,24.27
2019-05-17T04:01:59.252Z,24.72
2019-05-17T04:04:33.200Z,23.07
2019-05-17T04:07:06.460Z,24.85
2019-05-17T04:09:39.549Z,24.55
2019-05-17T04:12:13.610Z,22.52
2019-05-17T04:14:45.850Z,23.85
2019-05-17T04:17:17.494Z,22.15
2019-05-17T04:19:49.269Z,22.55
2019-05-17T04:22:23.632Z,21.97
2019-05-17T04:24:54.493Z,22.70
2019-05-17T04:27:26.118Z,24.12
2019-05-17T04:30:03.320Z,23.55
2019-05-17T04:32:33.567Z,22.95
2019-05-17T04:35:06.191Z,19.65
2019-05-17T04:37:38.783Z,22.15
2019-05-17T04:40:13.655Z,22.45
2019-05-17T04:42:44.807Z,22.52
2019-05-17T04:45:16.817Z,23.45
2019-05-17T04:47:52.666Z,19.80
2019-05-17T04:50:23.366Z,20.20
2019-05-17T04:52:55.080Z,19.98
2019-05-17T04:55:33.789Z,21.27
2019-05-17T04:58:04.724Z,22.87
2019-05-17T05:00:37.815Z,24.12
2019-05-17T05:03:12.471Z,21.95
2019-05-17T05:05:43.869Z,20.88
2019-05-17T05:08:17.766Z,19.75
2019-05-17T05:10:53.171Z,22.73
2019-05-17T05:13:26.442Z,20.57
2019-05-17T05:15:58.220Z,19.10
2019-05-17T05:18:32.518Z,19.80
2019-05-17T05:21:03.911Z,21.20
2019-05-17T05:23:35.846Z,22.70
2019-05-17T05:26:07.934Z,21.82
2019-05-17T05:28:41.884Z,24.52
2019-05-17T05:31:13.428Z,27.62
2019-05-17T05:33:45.063Z,20.85
2019-05-17T05:36:17.662Z,21.37
2019-05-17T05:38:51.459Z,23.00
2019-05-17T05:41:22.734Z,21.17
2019-05-17T05:43:54.514Z,20.62
2019-05-17T05:46:26.078Z,21.30
2019-05-17T05:48:57.740Z,23.25
2019-05-17T05:51:31.840Z,21.20
2019-05-17T05:54:04.844Z,23.10
2019-05-17T05:56:38.099Z,20.85
2019-05-17T05:59:12.061Z,24.55
2019-05-17T06:01:43.265Z,21.23
2019-05-17T06:04:16.678Z,22.30
2019-05-17T06:06:52.219Z,23.42
2019-05-17T06:09:26.321Z,24.75
2019-05-17T06:11:58.133Z,21.68
2019-05-17T06:14:32.196Z,22.65
2019-05-17T06:17:03.300Z,23.38
2019-05-17T06:19:36.111Z,24.80
2019-05-17T06:22:09.087Z,20.97
2019-05-17T06:24:42.540Z,31.40
2019-05-17T06:27:17.618Z,33.92
2019-05-17T06:29:51.534Z,29.32
2019-05-17T06:32:23.010Z,26.75
2019-05-17T06:34:56.267Z,26.90
2019-05-17T06:37:28.050Z,33.95
2019-05-17T06:40:02.108Z,25.32
2019-05-17T06:42:40.458Z,26.48
2019-05-17T06:45:07.562Z,23.80
2019-05-17T06:47:39.182Z,29.65
2019-05-17T06:50:13.852Z,26.57
2019-05-17T06:52:45.001Z,22.27
2019-05-17T06:55:16.834Z,23.42
2019-05-17T06:57:48.597Z,23.85
2019-05-17T07:00:23.906Z,20.23
2019-05-17T07:02:55.540Z,22.58
2019-05-17T07:05:30.278Z,17.52
2019-05-17T07:08:02.173Z,13.85
2019-05-17T07:10:33.965Z,29.55
2019-05-17T07:13:10.333Z,30.45
2019-05-17T07:15:47.337Z,12.20
2019-05-17T07:18:16.764Z,17.15
2019-05-17T07:20:50.347Z,22.65
2019-05-17T07:23:23.775Z,30.40
2019-05-17T07:25:59.470Z,19.85
2019-05-17T07:28:31.714Z,27.73
2019-05-17T07:31:03.828Z,25.15
2019-05-17T07:33:35.598Z,28.62
2019-05-17T07:36:07.467Z,18.17
2019-05-17T07:38:39.741Z,21.90
2019-05-17T07:41:12.053Z,21.25
2019-05-17T07:43:46.057Z,25.43
2019-05-17T07:46:21.473Z,20.57
2019-05-17T07:48:53.406Z,18.60
2019-05-17T07:51:29.957Z,23.77
2019-05-17T07:54:06.453Z,22.37
2019-05-17T07:56:40.189Z,18.10
2019-05-17T07:59:13.850Z,21.83
2019-05-17T08:01:45.792Z,28.92
2019-05-17T08:04:20.455Z,18.92
2019-05-17T08:06:52.295Z,28.73
2019-05-17T08:09:24.093Z,22.90
2019-05-17T08:11:56.909Z,25.97
2019-05-17T08:14:32.935Z,20.97
2019-05-17T08:17:02.826Z,25.20
2019-05-17T08:19:34.563Z,21.12
2019-05-17T08:22:09.629Z,18.73
2019-05-17T08:24:40.660Z,20.55
2019-05-17T08:27:13.597Z,11.50
2019-05-17T08:29:50.058Z,22.55
2019-05-17T08:32:25.871Z,18.32
2019-05-17T08:35:00.338Z,18.92
2019-05-17T08:37:32.335Z,23.67
2019-05-17T08:40:07.101Z,7.08
2019-05-17T08:42:40.697Z,20.05
2019-05-17T08:45:14.406Z,13.10
2019-05-17T08:47:46.198Z,22.07
2019-05-17T08:50:20.014Z,16.00
2019-05-17T08:52:51.785Z,24.02
2019-05-17T08:55:23.495Z,19.52
2019-05-17T08:57:55.212Z,16.80
2019-05-17T09:00:31.274Z,21.00
2019-05-17T09:03:02.695Z,17.23
2019-05-17T09:05:36.656Z,19.52
2019-05-17T09:08:10.399Z,20.95
2019-05-17T09:10:41.717Z,18.17
2019-05-17T09:13:15.056Z,17.37
2019-05-17T09:15:49.390Z,20.10
2019-05-17T09:18:24.406Z,15.48
2019-05-17T09:20:56.222Z,15.18
2019-05-17T09:23:30.450Z,8.93
2019-05-17T09:26:02.528Z,17.00
2019-05-17T09:28:35.761Z,8.78
2019-05-17T09:31:11.090Z,6.72
2019-05-17T09:33:42.766Z,16.90
2019-05-17T09:36:14.394Z,17.52
2019-05-17T09:38:49.519Z,18.17
2019-05-17T09:41:21.352Z,20.82
2019-05-17T09:43:53.093Z,14.40
2019-05-17T09:46:26.709Z,14.05
2019-05-17T09:49:01.106Z,15.08
2019-05-17T09:51:40.200Z,11.12
2019-05-17T09:54:13.729Z,13.58
2019-05-17T09:56:45.967Z,14.25
2019-05-17T09:59:20.392Z,16.55
2019-05-17T10:01:52.246Z,17.90
2019-05-17T10:04:23.984Z,15.05
2019-05-17T10:06:55.738Z,15.18
2019-05-17T10:09:27.814Z,11.33
2019-05-17T10:12:00.049Z,10.58
2019-05-17T10:14:32.028Z,15.08
2019-05-17T10:17:04.928Z,11.83
2019-05-17T10:19:40.042Z,18.87
2019-05-17T10:22:12.153Z,16.25
2019-05-17T10:24:45.252Z,17.95
2019-05-17T10:27:19.664Z,12.93
2019-05-17T10:32:26.452Z,17.00
2019-05-17T10:35:00.318Z,14.45
2019-05-17T10:37:32.161Z,13.45
2019-05-17T10:40:04.832Z,13.83
2019-05-17T10:42:36.625Z,14.80
2019-05-17T10:45:11.156Z,11.33
2019-05-17T10:47:43.257Z,8.00
2019-05-17T10:50:15.003Z,20.23
2019-05-17T10:52:47.794Z,12.28
2019-05-17T10:55:20.099Z,11.38
2019-05-17T10:57:53.048Z,14.03
2019-05-17T11:00:26.271Z,14.55
2019-05-17T11:03:00.476Z,13.40
2019-05-17T11:05:32.590Z,15.53
2019-05-17T11:08:05.712Z,11.50
2019-05-17T11:10:39.279Z,6.70
2019-05-17T11:13:10.673Z,8.05
2019-05-17T11:15:43.295Z,5.30
2019-05-17T11:18:16.331Z,7.72
2019-05-17T11:20:49.931Z,13.18
2019-05-17T11:23:21.629Z,15.13
2019-05-17T11:25:53.427Z,13.15
2019-05-17T11:28:25.151Z,11.20
2019-05-17T11:30:56.843Z,16.15
2019-05-17T11:33:29.071Z,18.55
2019-05-17T11:36:00.899Z,13.25
2019-05-17T11:38:34.390Z,16.80
2019-05-17T11:41:20.376Z,17.80
2019-05-17T11:43:39.906Z,14.80
2019-05-17T11:46:13.204Z,14.05
2019-05-17T11:48:45.962Z,8.65
2019-05-17T11:51:19.679Z,12.65
2019-05-17T11:53:51.833Z,11.53
2019-05-17T11:56:26.789Z,11.78
2019-05-17T11:59:00.710Z,9.78
2019-05-17T12:01:33.203Z,9.93
2019-05-17T12:04:08.332Z,9.88
2019-05-17T12:06:41.562Z,12.55
2019-05-17T12:09:14.476Z,14.65
2019-05-17T12:11:46.519Z,9.73
2019-05-17T12:14:19.516Z,10.63
2019-05-17T12:16:51.675Z,11.30
2019-05-17T12:19:23.445Z,11.45
2019-05-17T12:21:56.366Z,8.28
2019-05-17T12:24:30.964Z,10.00
2019-05-17T12:27:04.804Z,10.35
2019-05-17T12:29:36.826Z,10.78
2019-05-17T12:32:08.582Z,8.18
2019-05-17T12:34:40.200Z,9.08
2019-05-17T12:37:11.912Z,12.43
2019-05-17T12:39:43.803Z,12.03
2019-05-17T12:42:16.099Z,10.18
2019-05-17T12:44:47.822Z,17.95
2019-05-17T12:47:19.655Z,8.43
2019-05-17T12:49:51.636Z,9.85
2019-05-17T12:52:25.760Z,11.43
2019-05-17T12:54:58.773Z,10.78
2019-05-17T12:57:31.076Z,12.98
2019-05-17T13:00:07.754Z,14.43
2019-05-17T13:02:40.640Z,12.63
2019-05-17T13:05:12.618Z,9.78
2019-05-17T13:07:45.100Z,10.23
2019-05-17T13:10:19.341Z,12.25
2019-05-17T13:12:54.789Z,9.00
2019-05-17T13:17:59.488Z,12.35
2019-05-17T13:20:31.356Z,12.40
2019-05-17T13:23:07.646Z,10.28
2019-05-17T13:25:47.970Z,9.85
2019-05-17T13:28:19.778Z,10.03
2019-05-17T13:30:52.331Z,11.88
2019-05-17T13:33:24.664Z,12.63
2019-05-17T13:35:58.689Z,11.63
2019-05-17T13:38:30.580Z,12.37
2019-05-17T13:41:03.838Z,12.50
2019-05-17T13:43:35.645Z,14.95
2019-05-17T13:46:07.389Z,15.70
2019-05-17T13:51:14.443Z,11.10
2019-05-17T13:53:46.533Z,12.70
2019-05-17T13:56:20.373Z,10.58
2019-05-17T13:58:54.775Z,8.40
2019-05-17T14:01:26.964Z,12.18
2019-05-17T14:04:00.258Z,12.07
2019-05-17T14:06:32.559Z,13.08
2019-05-17T14:09:08.090Z,15.40
2019-05-17T14:11:43.703Z,16.05
2019-05-17T14:14:15.733Z,13.68
2019-05-17T14:16:49.545Z,12.20
2019-05-17T14:19:22.536Z,8.05
2019-05-17T14:21:55.276Z,9.18
2019-05-17T14:24:29.348Z,17.40
2019-05-17T14:29:38.124Z,12.77
2019-05-17T14:32:14.186Z,14.15
2019-05-17T14:34:49.604Z,11.20
2019-05-17T14:37:23.139Z,14.87
2019-05-17T14:39:57.825Z,14.80
2019-05-17T14:42:32.543Z,7.40
2019-05-17T14:45:08.724Z,8.58
2019-05-17T14:47:45.180Z,12.20
2019-05-17T14:50:19.819Z,17.77
2019-05-17T14:52:53.108Z,15.50
2019-05-17T14:55:27.145Z,16.62
2019-05-17T14:57:58.898Z,13.30
2019-05-17T15:00:31.661Z,12.58
2019-05-17T15:03:07.548Z,12.30
2019-05-17T15:05:40.199Z,14.60
2019-05-17T15:08:12.000Z,15.83
2019-05-17T15:10:43.792Z,8.73
2019-05-17T15:13:16.817Z,13.45
2019-05-17T15:15:48.587Z,15.85
2019-05-17T15:18:21.220Z,16.65
2019-05-17T15:20:54.429Z,16.27
2019-05-17T15:23:26.127Z,13.20
2019-05-17T15:26:01.145Z,11.40
2019-05-17T15:28:32.883Z,14.07
2019-05-17T15:31:04.663Z,13.00
2019-05-17T15:33:36.800Z,13.98
2019-05-17T15:36:08.724Z,18.20
2019-05-17T15:38:40.616Z,16.10
2019-05-17T15:41:13.939Z,14.68
2019-05-17T15:43:45.997Z,16.62
2019-05-17T15:46:21.114Z,15.90
2019-05-17T15:48:54.568Z,19.80
2019-05-17T15:51:26.432Z,18.10
2019-05-17T15:53:58.315Z,22.82
2019-05-17T15:56:30.247Z,21.77
2019-05-17T15:59:02.543Z,22.87
2019-05-17T16:01:36.918Z,21.23
2019-05-17T16:04:09.882Z,16.62
2019-05-17T16:06:42.020Z,18.20
2019-05-17T16:09:13.774Z,15.30
2019-05-17T16:11:46.898Z,11.50
2019-05-17T16:14:19.664Z,15.32
2019-05-17T16:16:52.387Z,14.90
2019-05-17T16:19:31.657Z,13.00
2019-05-17T16:22:05.485Z,17.00
2019-05-17T16:24:37.350Z,13.00
2019-05-17T16:27:09.206Z,17.48
2019-05-17T16:29:43.859Z,14.00
2019-05-17T16:32:15.596Z,15.70
2019-05-17T16:34:47.321Z,14.23
2019-05-17T16:37:20.728Z,17.20
2019-05-17T16:39:52.726Z,14.73
2019-05-17T16:42:24.698Z,14.05
2019-05-17T16:44:56.553Z,17.30
2019-05-17T16:47:33.031Z,22.25
2019-05-17T16:50:07.961Z,19.42
2019-05-17T16:52:39.711Z,25.02
2019-05-17T16:55:12.600Z,20.90
2019-05-17T16:57:45.828Z,16.95
2019-05-17T17:00:39.163Z,12.58
2019-05-17T17:03:13.905Z,16.52
2019-05-17T17:05:48.556Z,16.37
2019-05-17T17:08:20.993Z,9.93
2019-05-17T17:10:55.000Z,10.80
2019-05-17T17:13:33.127Z,13.68
2019-05-17T17:16:03.141Z,12.23
2019-05-17T17:18:36.661Z,14.73
2019-05-17T17:21:08.597Z,15.03
2019-05-17T17:23:41.941Z,15.95
2019-05-17T17:26:16.088Z,13.20
2019-05-17T17:28:47.919Z,8.63
2019-05-17T17:31:20.562Z,16.85
2019-05-17T17:33:53.158Z,14.55
2019-05-17T17:36:28.014Z,12.47
2019-05-17T17:39:00.018Z,15.35
2019-05-17T17:41:33.993Z,12.98
2019-05-17T17:44:09.457Z,13.08
2019-05-17T17:46:47.074Z,15.83
2019-05-17T17:49:19.046Z,10.05
2019-05-17T17:51:52.847Z,9.75
2019-05-17T17:54:26.369Z,12.55
2019-05-17T17:56:58.764Z,14.68
2019-05-17T17:59:36.958Z,10.27
2019-05-17T18:02:10.108Z,12.78
2019-05-17T18:04:45.224Z,14.50
2019-05-17T18:07:17.278Z,12.15
2019-05-17T18:09:49.769Z,15.83
2019-05-17T18:12:22.403Z,10.10
2019-05-17T18:14:56.378Z,9.58
2019-05-17T18:17:39.026Z,11.27
2019-05-17T18:20:09.884Z,14.98
2019-05-17T18:22:42.936Z,11.63
2019-05-17T18:25:18.049Z,13.30
2019-05-17T18:27:49.775Z,12.93
2019-05-17T18:30:21.756Z,18.27
2019-05-17T18:32:56.824Z,14.43
2019-05-17T18:35:28.777Z,10.23
2019-05-17T18:38:04.590Z,14.40
2019-05-17T18:44:27.282Z,13.03
2019-05-17T18:46:53.750Z,14.90
2019-05-17T18:49:26.766Z,20.10
2019-05-17T18:51:58.632Z,9.45
2019-05-17T18:54:33.306Z,17.57
2019-05-17T18:57:08.126Z,18.35
2019-05-17T18:59:46.916Z,18.90
2019-05-17T19:02:21.582Z,20.70
2019-05-17T19:04:58.135Z,30.52
2019-05-17T19:07:31.811Z,15.58
2019-05-17T19:10:08.105Z,15.63
2019-05-17T19:12:39.895Z,15.78
2019-05-17T19:15:14.767Z,11.57
2019-05-17T19:17:48.461Z,14.93
2019-05-17T19:20:24.845Z,14.20
2019-05-17T19:23:00.911Z,18.25
2019-05-17T19:25:38.106Z,19.35
2019-05-17T19:28:11.209Z,17.80
2019-05-17T19:30:45.141Z,13.65
2019-05-17T19:33:20.354Z,14.23
2019-05-17T19:35:55.618Z,15.83
2019-05-17T19:38:27.375Z,17.62
2019-05-17T19:41:03.274Z,16.73
2019-05-17T19:43:35.500Z,15.30
2019-05-17T19:46:07.334Z,15.98
2019-05-17T19:48:42.567Z,16.13
2019-05-17T19:51:17.313Z,15.38
2019-05-17T19:53:49.227Z,17.70
2019-05-17T19:56:25.818Z,18.30
2019-05-17T19:58:57.880Z,15.88
2019-05-17T20:01:32.088Z,14.93
2019-05-17T20:04:05.604Z,22.45
2019-05-17T20:06:39.986Z,15.32
2019-05-17T20:09:15.771Z,16.25
2019-05-17T20:14:31.125Z,18.40
2019-05-17T20:17:03.863Z,17.07
2019-05-17T20:19:36.431Z,14.23
2019-05-17T20:22:09.609Z,17.35
2019-05-17T20:24:43.751Z,18.82
2019-05-17T20:27:19.854Z,21.75
2019-05-17T20:29:51.587Z,20.40
2019-05-17T20:32:23.384Z,19.50
2019-05-17T20:34:58.444Z,20.23
2019-05-17T20:37:31.319Z,18.23
2019-05-17T20:40:05.331Z,11.83
2019-05-17T20:42:38.493Z,18.70
2019-05-17T20:45:12.364Z,21.48
2019-05-17T20:47:45.749Z,17.15
2019-05-17T20:50:20.058Z,27.05
2019-05-17T20:52:54.258Z,16.70
2019-05-17T20:55:27.757Z,22.95
2019-05-17T20:58:00.152Z,20.75
2019-05-17T21:00:33.465Z,17.65
2019-05-17T21:03:05.298Z,23.22
2019-05-17T21:05:37.188Z,17.95
2019-05-17T21:08:09.650Z,24.27
2019-05-17T21:10:45.557Z,20.57
2019-05-17T21:13:22.048Z,20.10
2019-05-17T21:15:56.599Z,18.45
2019-05-17T21:18:31.552Z,11.22
2019-05-17T21:21:03.784Z,21.30
2019-05-17T21:23:36.971Z,19.57
2019-05-17T21:26:13.798Z,20.40
2019-05-17T21:28:47.343Z,19.15
2019-05-17T21:31:18.869Z,25.52
2019-05-17T21:33:50.638Z,18.05
2019-05-17T21:36:22.431Z,19.10
2019-05-17T21:38:54.153Z,18.75
2019-05-17T21:41:26.876Z,19.82
2019-05-17T21:43:58.851Z,16.17
2019-05-17T21:46:30.569Z,20.02
2019-05-17T21:49:02.281Z,24.32
2019-05-17T21:51:33.930Z,20.37
2019-05-17T21:54:06.667Z,16.23
2019-05-17T21:56:39.698Z,22.80
2019-05-17T21:59:15.409Z,17.07
2019-05-17T22:04:30.222Z,21.87
2019-05-17T22:07:04.060Z,21.50
2019-05-17T22:09:49.160Z,17.25
2019-05-17T22:12:29.793Z,17.87
2019-05-17T22:15:03.468Z,17.57
2019-05-17T22:17:38.415Z,16.05
2019-05-17T22:20:14.785Z,17.67
2019-05-17T22:22:47.488Z,21.80
2019-05-17T22:25:19.180Z,20.35
2019-05-17T22:27:50.838Z,18.27
2019-05-17T22:30:23.174Z,22.90
2019-05-17T22:32:56.803Z,16.65
2019-05-17T22:35:28.759Z,19.23
2019-05-17T22:38:00.686Z,16.85
2019-05-17T22:40:33.527Z,15.43
2019-05-17T22:43:05.478Z,15.68
2019-05-17T22:45:38.496Z,20.48
2019-05-17T22:48:10.279Z,18.77
2019-05-17T22:50:42.125Z,16.27
2019-05-17T22:53:17.193Z,17.32
2019-05-17T22:55:51.311Z,16.95
2019-05-17T22:58:25.536Z,17.40
2019-05-17T23:00:57.293Z,17.35
2019-05-17T23:03:29.179Z,16.27
2019-05-17T23:06:01.997Z,15.95
2019-05-17T23:08:33.612Z,10.70
2019-05-17T23:11:09.009Z,18.45
2019-05-17T23:13:45.972Z,17.20
2019-05-17T23:16:20.340Z,16.93
2019-05-17T23:19:08.819Z,21.55
2019-05-17T23:21:41.459Z,17.27
2019-05-17T23:24:13.045Z,13.08
2019-05-17T23:26:44.876Z,12.28
2019-05-17T23:29:18.747Z,18.48
2019-05-17T23:34:24.539Z,12.35
2019-05-17T23:36:56.541Z,17.37
2019-05-17T23:39:28.618Z,15.48
2019-05-17T23:42:00.509Z,11.75
2019-05-17T23:44:32.582Z,15.68
2019-05-17T23:47:07.361Z,14.78
2019-05-17T23:49:38.360Z,14.65
2019-05-17T23:52:10.092Z,18.12
2019-05-17T23:54:41.838Z,17.07
2019-05-17T23:57:13.451Z,8.38
2019-05-17T23:59:45.021Z,17.70
